Time;durP1;ratioP1;P1;durP2;ratioP2;P2;SDS_P1;SDS_P2;PMS_P1;PMS_P2;Temp;Humidity;BMP_temperature;BMP_pressure;BME280_temperature;BME280_humidity;BME280_pressure;Samples;Min_cycle;Max_cycle;Signal;HPM_P1;HPM_P2
2023/05/17 00:00:37;;;;;;;7.65;2.95;;;10.00;99.90;;;;;;5071401;28;20579;-47
2023/05/17 00:03:02;;;;;;;5.22;2.60;;;10.00;99.90;;;;;;5071138;28;20166;-45
2023/05/17 00:05:28;;;;;;;8.55;2.75;;;10.00;99.90;;;;;;5070743;28;20206;-45
2023/05/17 00:07:53;;;;;;;8.45;3.17;;;10.00;99.90;;;;;;5071513;28;20635;-46
2023/05/17 00:10:20;;;;;;;6.55;2.25;;;;;;;;;;5071094;28;20229;-45
2023/05/17 00:12:46;;;;;;;5.85;2.35;;;;;;;;;;5071090;28;20196;-45
2023/05/17 00:15:13;;;;;;;5.28;2.10;;;10.00;99.90;;;;;;5070822;28;20513;-45
2023/05/17 00:17:39;;;;;;;9.05;2.58;;;;;;;;;;5071059;28;20681;-45
2023/05/17 00:20:05;;;;;;;7.90;2.28;;;9.90;99.90;;;;;;5070959;28;20169;-45
2023/05/17 00:22:31;;;;;;;8.48;3.00;;;;;;;;;;5070821;28;20202;-45
2023/05/17 00:24:57;;;;;;;8.10;3.00;;;;;;;;;;5071091;28;20204;-51
2023/05/17 00:27:23;;;;;;;5.00;2.38;;;;;;;;;;5070865;28;20215;-45
2023/05/17 00:29:49;;;;;;;6.30;2.55;;;9.80;99.90;;;;;;5070642;28;20209;-48
2023/05/17 00:32:14;;;;;;;9.02;2.60;;;9.80;99.90;;;;;;5070673;28;20169;-45
2023/05/17 00:34:40;;;;;;;8.13;2.75;;;;;;;;;;5070845;28;20217;-45
2023/05/17 00:37:06;;;;;;;5.47;3.80;;;;;;;;;;5070518;28;20166;-46
2023/05/17 00:39:32;;;;;;;6.57;3.35;;;;;;;;;;5070748;28;20604;-46
2023/05/17 00:42:00;;;;;;;6.68;2.90;;;9.70;99.90;;;;;;5070702;28;20241;-45
2023/05/17 00:44:25;;;;;;;7.53;3.13;;;9.80;99.90;;;;;;5070623;28;20170;-44
2023/05/17 00:46:51;;;;;;;8.48;2.97;;;9.70;99.90;;;;;;5070216;28;20181;-44
2023/05/17 00:49:16;;;;;;;4.03;3.22;;;9.70;99.90;;;;;;5070300;28;20216;-45
2023/05/17 00:51:43;;;;;;;5.65;2.80;;;9.80;99.90;;;;;;5070379;28;20174;-45
2023/05/17 00:54:09;;;;;;;8.15;2.80;;;;;;;;;;5070165;28;20170;-45
2023/05/17 00:56:35;;;;;;;5.88;2.90;;;;;;;;;;5070162;28;20173;-45
2023/05/17 00:59:05;;;;;;;7.55;3.70;;;9.80;99.90;;;;;;5070056;28;20247;-45
2023/05/17 01:01:31;;;;;;;7.47;2.70;;;9.70;99.90;;;;;;5070276;28;20162;-45
2023/05/17 01:03:56;;;;;;;5.80;2.72;;;9.80;99.90;;;;;;5070506;28;20288;-46
2023/05/17 01:06:23;;;;;;;9.65;3.58;;;9.70;99.90;;;;;;5069732;28;20310;-45
2023/05/17 01:08:49;;;;;;;5.68;2.92;;;;;;;;;;5069831;28;20181;-45
2023/05/17 01:11:41;;;;;;;6.45;2.95;;;9.70;99.90;;;;;;5070045;28;20177;-46
2023/05/17 01:14:44;;;;;;;4.80;3.08;;;9.60;99.90;;;;;;5070085;28;20166;-45
2023/05/17 01:17:42;;;;;;;8.18;3.42;;;9.60;99.90;;;;;;5070149;28;20177;-45
2023/05/17 01:20:33;;;;;;;5.45;3.05;;;9.50;99.90;;;;;;5052056;28;20182;-45
2023/05/17 01:23:32;;;;;;;6.95;3.05;;;9.50;99.90;;;;;;5069813;28;20252;-45
2023/05/17 01:26:12;;;;;;;7.13;3.47;;;9.50;99.90;;;;;;5070544;28;20623;-46
2023/05/17 01:28:40;;;;;;;7.72;3.08;;;;;;;;;;5069793;28;20253;-45
2023/05/17 01:31:07;;;;;;;8.43;3.75;;;9.50;99.90;;;;;;5069824;28;20228;-45
2023/05/17 01:33:34;;;;;;;10.45;3.58;;;9.40;99.90;;;;;;5069743;28;20174;-45
2023/05/17 01:36:00;;;;;;;6.93;3.38;;;9.50;99.90;;;;;;5068479;28;20166;-45
2023/05/17 01:38:25;;;;;;;8.00;3.60;;;9.40;99.90;;;;;;5070161;28;20174;-45
2023/05/17 01:41:09;;;;;;;9.13;3.25;;;9.40;99.90;;;;;;5069514;28;20169;-45
2023/05/17 01:43:45;;;;;;;9.57;3.22;;;9.40;99.90;;;;;;5070096;28;20215;-45
2023/05/17 01:46:38;;;;;;;8.00;3.20;;;9.40;99.90;;;;;;5069680;28;20174;-45
2023/05/17 01:49:32;;;;;;;11.52;3.53;;;9.40;99.90;;;;;;5069785;28;20255;-44
2023/05/17 01:52:07;;;;;;;13.75;3.58;;;9.40;99.90;;;;;;5067389;28;20197;-47
2023/05/17 01:54:42;;;;;;;9.20;3.40;;;9.40;99.90;;;;;;5069739;28;20574;-45
2023/05/17 01:57:09;;;;;;;11.35;2.90;;;9.40;99.90;;;;;;5069673;28;20636;-45
2023/05/17 01:59:37;;;;;;;9.43;3.78;;;9.40;99.90;;;;;;5069516;28;20257;-45
2023/05/17 02:02:07;;;;;;;8.32;3.75;;;9.30;99.90;;;;;;5069450;28;20607;-45
2023/05/17 02:04:34;;;;;;;13.30;3.85;;;9.30;99.90;;;;;;5069600;28;20174;-45
2023/05/17 02:07:00;;;;;;;10.13;3.40;;;;;;;;;;5068915;28;20214;-45
2023/05/17 02:09:27;;;;;;;14.00;3.28;;;;;;;;;;5069649;28;20210;-45
2023/05/17 02:11:52;;;;;;;7.85;3.70;;;9.20;99.90;;;;;;5069703;28;20174;-45
2023/05/17 02:14:18;;;;;;;12.32;3.25;;;9.20;99.90;;;;;;5069430;28;20674;-45
2023/05/17 02:16:44;;;;;;;11.55;3.80;;;;;;;;;;5069353;28;20173;-45
2023/05/17 02:19:11;;;;;;;13.98;3.90;;;9.20;99.90;;;;;;5072185;28;20170;-45
2023/05/17 02:21:37;;;;;;;13.85;4.38;;;9.20;99.90;;;;;;5073490;28;20174;-45
2023/05/17 02:24:03;;;;;;;12.65;3.80;;;9.10;99.90;;;;;;5073240;28;20666;-45
2023/05/17 02:26:30;;;;;;;10.55;4.00;;;9.10;99.90;;;;;;5071824;28;20178;-45
2023/05/17 02:28:56;;;;;;;9.65;3.42;;;9.10;99.90;;;;;;5073590;28;20194;-45
2023/05/17 02:31:23;;;;;;;10.50;4.13;;;9.00;99.90;;;;;;5073079;28;20166;-45
2023/05/17 02:33:49;;;;;;;16.73;4.97;;;9.10;99.90;;;;;;5073146;28;20166;-45
2023/05/17 02:36:14;;;;;;;10.98;4.32;;;9.10;99.90;;;;;;5072818;28;20174;-45
2023/05/17 02:38:40;;;;;;;19.45;4.95;;;;;;;;;;5072848;28;20500;-45
2023/05/17 02:41:06;;;;;;;17.30;4.47;;;9.10;99.90;;;;;;5072872;28;20498;-45
2023/05/17 02:43:32;;;;;;;9.85;4.05;;;9.20;99.90;;;;;;5072753;28;20219;-46
2023/05/17 02:45:57;;;;;;;16.33;4.40;;;;;;;;;;5073168;28;20185;-45
2023/05/17 02:48:23;;;;;;;9.18;4.03;;;;;;;;;;5073037;28;20541;-45
2023/05/17 02:50:49;;;;;;;10.13;4.10;;;;;;;;;;5072636;28;20292;-45
2023/05/17 02:53:15;;;;;;;17.38;4.70;;;9.00;99.90;;;;;;5072786;28;20201;-45
2023/05/17 02:55:41;;;;;;;13.45;4.15;;;9.00;99.90;;;;;;5072680;28;20591;-45
2023/05/17 02:58:06;;;;;;;13.95;4.05;;;;;;;;;;5072469;28;20527;-45
2023/05/17 03:00:32;;;;;;;10.27;3.92;;;;;;;;;;5072505;28;20639;-45
2023/05/17 03:02:58;;;;;;;13.27;4.38;;;9.00;99.90;;;;;;5072639;28;20242;-45
2023/05/17 03:05:24;;;;;;;11.48;3.58;;;9.00;99.90;;;;;;5072676;28;20682;-45
2023/05/17 03:07:49;;;;;;;11.52;3.55;;;8.90;99.90;;;;;;5072195;28;20173;-45
2023/05/17 03:10:15;;;;;;;11.77;4.53;;;;;;;;;;5072241;28;20675;-45
2023/05/17 03:12:41;;;;;;;9.75;4.25;;;8.70;99.90;;;;;;5071870;28;20174;-45
2023/05/17 03:15:07;;;;;;;19.70;4.88;;;8.90;99.90;;;;;;5072225;28;20178;-45
2023/05/17 03:17:33;;;;;;;13.82;4.45;;;;;;;;;;5072194;28;20178;-44
2023/05/17 03:19:58;;;;;;;8.73;4.80;;;8.80;99.90;;;;;;5072094;28;20198;-45
2023/05/17 03:22:24;;;;;;;14.50;5.18;;;8.80;99.90;;;;;;5072524;28;20691;-45
2023/05/17 03:24:50;;;;;;;18.15;4.72;;;;;;;;;;5072245;28;20178;-45
2023/05/17 03:27:15;;;;;;;12.63;4.68;;;8.70;99.90;;;;;;5071894;28;20165;-45
2023/05/17 03:29:41;;;;;;;12.13;4.75;;;8.70;99.90;;;;;;5071768;28;20242;-45
2023/05/17 03:32:07;;;;;;;10.63;5.10;;;8.60;99.90;;;;;;5071990;28;20238;-46
2023/05/17 03:34:33;;;;;;;13.23;5.35;;;8.70;99.90;;;;;;5072131;28;20170;-45
2023/05/17 03:36:59;;;;;;;12.15;5.68;;;8.70;99.90;;;;;;5071712;28;20173;-45
2023/05/17 03:39:25;;;;;;;17.15;5.43;;;8.70;99.90;;;;;;5072147;28;20165;-45
2023/05/17 03:41:50;;;;;;;10.25;4.75;;;8.70;99.90;;;;;;5071582;28;20170;-45
2023/05/17 03:44:16;;;;;;;12.70;5.55;;;;;;;;;;5071571;28;20539;-45
2023/05/17 03:46:42;;;;;;;11.57;5.18;;;;;;;;;;5071813;28;20181;-45
2023/05/17 03:49:08;;;;;;;13.93;5.75;;;8.60;99.90;;;;;;5071525;28;20604;-46
2023/05/17 03:51:33;;;;;;;14.88;6.40;;;8.80;99.90;;;;;;5071500;28;20205;-45
2023/05/17 03:53:59;;;;;;;14.98;6.80;;;8.70;99.90;;;;;;5071413;28;20622;-45
2023/05/17 03:56:25;;;;;;;7.80;5.30;;;8.70;99.90;;;;;;5071789;28;20228;-45
2023/05/17 03:58:51;;;;;;;9.07;4.95;;;;;;;;;;5071290;28;20175;-45
2023/05/17 04:01:19;;;;;;;10.40;5.38;;;8.70;99.90;;;;;;5071347;28;20732;-45
2023/05/17 04:03:45;;;;;;;11.55;5.85;;;;;;;;;;5071462;28;20178;-45
2023/05/17 04:06:12;;;;;;;16.40;6.30;;;8.60;99.90;;;;;;5071316;28;20648;-45
2023/05/17 04:08:38;;;;;;;17.55;6.07;;;;;;;;;;5071196;28;20166;-45
2023/05/17 04:11:09;;;;;;;15.88;6.65;;;8.80;99.90;;;;;;5070992;28;20220;-45
2023/05/17 04:13:38;;;;;;;13.13;5.95;;;8.80;99.90;;;;;;5070980;28;20163;-45
2023/05/17 04:16:04;;;;;;;15.60;6.95;;;;;;;;;;5071166;28;20177;-45
2023/05/17 04:18:33;;;;;;;13.85;6.05;;;8.80;99.90;;;;;;5071240;28;20166;-45
2023/05/17 04:20:58;;;;;;;17.90;7.15;;;8.90;99.90;;;;;;5070769;28;20534;-45
2023/05/17 04:23:25;;;;;;;14.43;5.78;;;9.00;99.90;;;;;;5071240;28;20166;-45
2023/05/17 04:25:51;;;;;;;14.27;7.00;;;;;;;;;;5071081;28;20174;-45
2023/05/17 04:28:17;;;;;;;15.75;5.97;;;8.90;99.90;;;;;;5071054;28;20257;-44
2023/05/17 04:30:43;;;;;;;11.80;5.68;;;9.10;99.90;;;;;;5070610;28;20304;-45
2023/05/17 04:33:09;;;;;;;14.70;5.57;;;;;;;;;;5070926;28;20560;-45
2023/05/17 04:35:37;;;;;;;11.10;5.65;;;9.10;99.90;;;;;;5070694;28;20262;-45
2023/05/17 04:38:03;;;;;;;21.70;7.10;;;;;;;;;;5070638;28;20170;-46
2023/05/17 04:40:28;;;;;;;16.42;6.68;;;9.20;99.90;;;;;;5068649;28;20177;-45
2023/05/17 04:42:54;;;;;;;17.80;7.25;;;9.30;99.90;;;;;;5070809;28;20177;-45
2023/05/17 04:45:19;;;;;;;10.80;6.25;;;9.30;99.90;;;;;;5070432;28;20174;-45
2023/05/17 04:47:45;;;;;;;25.48;8.85;;;9.40;99.90;;;;;;5070504;28;20265;-45
2023/05/17 04:50:11;;;;;;;21.92;7.03;;;9.60;99.90;;;;;;5070414;28;20205;-45
2023/05/17 04:52:37;;;;;;;26.05;7.70;;;;;;;;;;5070184;28;20509;-45
2023/05/17 04:55:04;;;;;;;21.50;7.82;;;9.80;99.90;;;;;;5070287;28;20653;-45
2023/05/17 04:57:29;;;;;;;16.50;7.28;;;9.80;99.90;;;;;;5070280;28;20178;-45
2023/05/17 04:59:55;;;;;;;17.13;7.45;;;10.00;99.90;;;;;;5070404;28;20538;-45
2023/05/17 05:02:20;;;;;;;10.73;5.55;;;10.10;99.90;;;;;;5070190;28;20174;-45
2023/05/17 05:04:46;;;;;;;17.90;6.53;;;;;;;;;;5070125;28;20173;-46
2023/05/17 05:07:12;;;;;;;14.50;6.38;;;10.10;99.90;;;;;;5069940;28;20221;-45
2023/05/17 05:09:38;;;;;;;14.90;6.55;;;;;;;;;;5070008;28;20655;-45
2023/05/17 05:12:03;;;;;;;15.00;6.70;;;10.00;99.90;;;;;;5069891;28;20684;-46
2023/05/17 05:14:29;;;;;;;15.68;6.28;;;10.00;99.90;;;;;;5069927;28;20504;-45
2023/05/17 05:16:55;;;;;;;23.23;7.28;;;;;;;;;;5070610;28;20585;-46
2023/05/17 05:19:21;;;;;;;18.95;6.85;;;;;;;;;;5070235;28;20219;-45
2023/05/17 05:21:47;;;;;;;20.38;6.75;;;10.10;99.90;;;;;;5069785;28;20260;-45
2023/05/17 05:24:12;;;;;;;15.95;6.50;;;10.20;99.90;;;;;;5069917;28;20165;-45
2023/05/17 05:26:38;;;;;;;19.27;7.10;;;10.20;99.90;;;;;;5070048;28;20178;-44
2023/05/17 05:29:04;;;;;;;22.35;7.78;;;10.30;99.90;;;;;;5069640;28;20201;-45
2023/05/17 05:31:29;;;;;;;16.23;6.43;;;10.20;99.90;;;;;;5069680;28;20218;-45
2023/05/17 05:33:55;;;;;;;28.83;8.18;;;;;;;;;;5069933;28;20170;-45
2023/05/17 05:36:21;;;;;;;15.13;6.20;;;10.30;99.90;;;;;;5070423;28;20243;-45
2023/05/17 05:38:47;;;;;;;15.48;5.85;;;10.30;99.90;;;;;;5071246;28;20166;-45
2023/05/17 05:41:13;;;;;;;14.15;5.82;;;;;;;;;;5071112;28;20658;-46
2023/05/17 05:43:39;;;;;;;18.70;5.68;;;10.30;99.90;;;;;;5071552;28;20170;-46
2023/05/17 05:46:05;;;;;;;19.55;6.40;;;10.30;99.90;;;;;;5071413;28;20211;-46
2023/05/17 05:48:30;;;;;;;19.48;6.75;;;10.40;99.90;;;;;;5071335;28;20159;-46
2023/05/17 05:50:56;;;;;;;18.05;7.35;;;10.50;99.90;;;;;;5071869;28;20302;-46
2023/05/17 05:53:21;;;;;;;16.75;6.95;;;10.60;99.90;;;;;;5073448;28;20243;-45
2023/05/17 05:55:48;;;;;;;15.05;6.90;;;10.60;99.90;;;;;;5075567;28;20572;-47
2023/05/17 05:58:13;;;;;;;20.48;7.10;;;10.90;99.90;;;;;;5075733;28;20177;-46
2023/05/17 06:00:39;;;;;;;17.17;7.25;;;11.00;99.90;;;;;;5075444;28;20166;-45
2023/05/17 06:03:05;;;;;;;17.70;7.85;;;11.10;99.90;;;;;;5075398;28;20173;-45
2023/05/17 06:05:30;;;;;;;14.02;7.13;;;11.10;99.90;;;;;;5075158;28;20235;-46
2023/05/17 06:07:56;;;;;;;14.45;6.53;;;11.10;99.90;;;;;;5075788;28;20208;-46
2023/05/17 06:10:22;;;;;;;21.27;7.68;;;11.30;99.90;;;;;;5075755;28;20209;-46
2023/05/17 06:12:48;;;;;;;19.50;7.55;;;11.20;99.90;;;;;;5075097;28;20588;-45
2023/05/17 06:15:13;;;;;;;14.15;7.15;;;11.50;99.90;;;;;;5075004;28;20166;-46
2023/05/17 06:17:39;;;;;;;15.45;6.72;;;11.80;99.90;;;;;;5075111;28;20174;-45
2023/05/17 06:20:05;;;;;;;21.05;8.23;;;11.90;99.90;;;;;;5075304;28;20223;-46
2023/05/17 06:22:30;;;;;;;14.32;7.55;;;11.90;99.90;;;;;;5075022;28;20168;-46
2023/05/17 06:24:56;;;;;;;16.08;7.30;;;12.10;99.90;;;;;;5075291;28;20537;-46
2023/05/17 06:27:22;;;;;;;16.13;7.72;;;12.00;99.90;;;;;;5075519;28;20564;-46
2023/05/17 06:29:47;;;;;;;15.30;7.50;;;12.10;99.90;;;;;;5074764;28;20197;-45
2023/05/17 06:32:13;;;;;;;15.95;7.20;;;12.20;99.90;;;;;;5074808;28;20192;-45
2023/05/17 06:34:38;;;;;;;19.23;7.13;;;12.20;99.90;;;;;;5074751;28;20534;-46
2023/05/17 06:37:05;;;;;;;16.42;7.28;;;12.30;99.90;;;;;;5074940;28;20170;-45
2023/05/17 06:39:30;;;;;;;16.42;7.82;;;12.40;99.90;;;;;;5074873;28;20174;-46
2023/05/17 06:41:56;;;;;;;15.85;7.22;;;12.50;99.90;;;;;;5075031;28;20158;-46
2023/05/17 06:44:21;;;;;;;14.45;7.15;;;12.70;99.90;;;;;;5074682;28;20170;-45
2023/05/17 06:46:47;;;;;;;13.40;6.70;;;12.50;99.90;;;;;;5074532;28;20561;-45
2023/05/17 06:49:12;;;;;;;18.05;6.75;;;12.50;99.90;;;;;;5074241;28;20604;-46
2023/05/17 06:51:38;;;;;;;18.40;6.93;;;12.50;99.90;;;;;;5074480;28;20640;-45
2023/05/17 06:54:04;;;;;;;19.33;6.97;;;12.70;99.90;;;;;;5074420;28;20593;-45
2023/05/17 06:56:30;;;;;;;13.10;6.50;;;12.80;99.90;;;;;;5074282;28;20163;-46
2023/05/17 06:58:56;;;;;;;19.67;7.57;;;;;;;;;;5074883;28;20165;-45
2023/05/17 07:01:22;;;;;;;15.75;6.72;;;12.80;99.90;;;;;;5074489;28;20177;-46
2023/05/17 07:03:47;;;;;;;20.05;6.63;;;13.00;99.90;;;;;;5073668;28;20170;-45
2023/05/17 07:06:13;;;;;;;24.90;6.88;;;13.10;99.90;;;;;;5073937;28;20217;-45
2023/05/17 07:08:39;;;;;;;15.15;5.80;;;;;;;;;;5073193;28;20184;-45
2023/05/17 07:11:04;;;;;;;17.73;6.50;;;13.20;99.90;;;;;;5072556;28;20209;-45
2023/05/17 07:13:30;;;;;;;15.55;6.35;;;13.50;99.90;;;;;;5072595;28;20251;-46
2023/05/17 07:15:56;;;;;;;13.80;6.20;;;;;;;;;;5072993;28;20181;-45
2023/05/17 07:18:22;;;;;;;15.13;4.28;;;13.10;99.90;;;;;;5072941;28;20573;-51
2023/05/17 07:20:47;;;;;;;11.10;4.00;;;13.10;99.90;;;;;;5072706;28;20198;-50
2023/05/17 07:23:13;;;;;;;8.70;3.30;;;12.90;99.90;;;;;;5073042;28;20165;-51
2023/05/17 07:25:39;;;;;;;14.30;4.18;;;13.10;99.90;;;;;;5073833;28;20261;-51
2023/05/17 07:28:05;;;;;;;8.20;3.00;;;13.00;99.90;;;;;;5074498;28;20224;-46
2023/05/17 07:30:30;;;;;;;8.90;3.30;;;12.90;99.90;;;;;;5073853;28;20567;-46
2023/05/17 07:32:56;;;;;;;11.13;3.13;;;;;;;;;;5073856;28;20162;-46
2023/05/17 07:35:22;;;;;;;12.57;3.25;;;13.00;99.90;;;;;;5074111;28;20174;-46
2023/05/17 07:37:48;;;;;;;10.75;2.70;;;;;;;;;;5072278;28;20634;-50
2023/05/17 07:40:14;;;;;;;9.20;2.95;;;13.30;99.90;;;;;;5073388;28;20563;-50
2023/05/17 07:42:39;;;;;;;8.55;2.78;;;13.30;99.90;;;;;;5073371;28;20177;-50
2023/05/17 07:45:06;;;;;;;7.88;2.63;;;13.40;99.90;;;;;;5073652;28;20197;-52
2023/05/17 07:47:31;;;;;;;9.73;2.55;;;13.30;99.90;;;;;;5073485;28;20256;-51
2023/05/17 07:49:57;;;;;;;9.98;3.35;;;13.30;99.90;;;;;;5073249;28;20293;-50
2023/05/17 07:52:22;;;;;;;9.52;3.15;;;13.20;99.90;;;;;;5073681;28;20197;-48
2023/05/17 07:54:48;;;;;;;7.07;2.40;;;13.20;99.90;;;;;;5073286;28;20166;-47
2023/05/17 07:57:13;;;;;;;7.88;2.50;;;13.40;99.90;;;;;;5073213;28;20158;-46
2023/05/17 07:59:39;;;;;;;12.32;3.15;;;13.60;99.90;;;;;;5073178;28;20244;-46
2023/05/17 08:02:05;;;;;;;8.50;2.83;;;13.60;99.90;;;;;;5073166;28;20249;-46
2023/05/17 08:04:31;;;;;;;9.55;3.22;;;13.60;99.90;;;;;;5073083;28;20190;-46
2023/05/17 08:06:56;;;;;;;12.85;3.15;;;13.40;99.90;;;;;;5072877;28;20213;-46
2023/05/17 08:09:22;;;;;;;5.95;2.75;;;13.50;99.90;;;;;;5073351;28;20601;-45
2023/05/17 08:11:47;;;;;;;10.07;2.50;;;13.30;99.90;;;;;;5072933;28;20658;-46
2023/05/17 08:14:14;;;;;;;9.10;2.53;;;13.40;99.90;;;;;;5073085;28;20170;-45
2023/05/17 08:16:45;;;;;;;10.02;2.80;;;13.20;99.90;;;;;;5071971;28;20691;-45
2023/05/17 08:19:12;;;;;;;14.95;3.03;;;13.10;99.90;;;;;;5072929;28;20170;-46
2023/05/17 08:21:38;;;;;;;6.38;2.72;;;13.00;99.90;;;;;;5072774;28;20658;-46
2023/05/17 08:24:04;;;;;;;11.60;3.00;;;13.30;99.90;;;;;;5072674;28;20162;-45
2023/05/17 08:26:30;;;;;;;8.50;3.40;;;13.20;99.90;;;;;;5072626;28;20181;-45
2023/05/17 08:28:56;;;;;;;8.05;2.95;;;;;;;;;;5072994;28;20205;-46
2023/05/17 08:31:21;;;;;;;12.38;3.42;;;13.10;99.90;;;;;;5073007;28;20200;-46
2023/05/17 08:33:46;;;;;;;11.48;3.42;;;13.10;99.90;;;;;;5072579;28;20169;-45
2023/05/17 08:36:12;;;;;;;9.15;3.50;;;13.10;99.90;;;;;;5072478;28;20528;-46
2023/05/17 08:38:38;;;;;;;10.10;3.42;;;13.20;99.90;;;;;;5072419;28;20655;-45
2023/05/17 08:41:04;;;;;;;6.40;2.70;;;;;;;;;;5072417;28;20193;-46
2023/05/17 08:43:30;;;;;;;9.63;3.10;;;13.40;99.90;;;;;;5072320;28;20162;-45
2023/05/17 08:45:56;;;;;;;9.05;3.00;;;;;;;;;;5072902;28;20178;-46
2023/05/17 08:48:23;;;;;;;11.63;2.63;;;;;;;;;;5072657;28;20507;-46
2023/05/17 08:50:51;;;;;;;6.85;2.85;;;14.60;99.90;;;;;;5072154;28;20194;-45
2023/05/17 08:53:17;;;;;;;7.78;2.83;;;14.70;99.90;;;;;;5072174;28;20248;-45
2023/05/17 08:55:49;;;;;;;10.63;2.55;;;14.90;99.90;;;;;;5072072;28;20277;-45
2023/05/17 08:58:21;;;;;;;9.65;2.78;;;14.60;99.90;;;;;;5072094;28;20180;-45
2023/05/17 09:00:49;;;;;;;6.82;2.70;;;14.60;99.90;;;;;;5072002;28;20620;-45
2023/05/17 09:03:17;;;;;;;11.52;2.70;;;14.40;99.90;;;;;;5072029;28;20158;-45
2023/05/17 09:05:48;;;;;;;8.35;2.63;;;14.10;99.90;;;;;;5071603;28;20209;-45
2023/05/17 09:08:14;;;;;;;12.68;2.92;;;14.20;99.90;;;;;;5071919;28;20527;-46
2023/05/17 09:10:41;;;;;;;8.45;2.50;;;14.30;99.90;;;;;;5071787;28;20198;-45
2023/05/17 09:13:06;;;;;;;9.88;2.40;;;14.20;99.90;;;;;;5071768;28;20223;-46
2023/05/17 09:15:33;;;;;;;9.38;2.28;;;14.10;99.90;;;;;;5072115;28;20177;-46
2023/05/17 09:17:59;;;;;;;7.70;2.20;;;14.10;99.90;;;;;;5071774;28;20154;-45
2023/05/17 09:20:35;;;;;;;11.70;2.47;;;14.60;99.90;;;;;;5072366;28;20166;-45
2023/05/17 09:23:01;;;;;;;10.48;3.05;;;;;;;;;;5071609;28;20522;-46
2023/05/17 09:25:28;;;;;;;5.55;2.58;;;14.90;99.90;;;;;;5071636;28;20162;-45
2023/05/17 09:27:56;;;;;;;5.88;2.60;;;15.00;99.90;;;;;;5071848;28;20216;-45
2023/05/17 09:30:29;;;;;;;8.82;3.40;;;15.30;99.90;;;;;;5071893;28;20698;-47
2023/05/17 09:32:56;;;;;;;9.77;2.90;;;15.40;99.90;;;;;;5072061;28;20173;-45
2023/05/17 09:35:30;;;;;;;13.07;3.92;;;15.50;99.90;;;;;;5072205;28;20174;-45
2023/05/17 09:38:07;;;;;;;9.30;2.70;;;15.60;99.90;;;;;;5071477;28;20188;-45
2023/05/17 09:40:37;;;;;;;13.23;3.30;;;15.40;99.90;;;;;;5071751;28;20181;-46
2023/05/17 09:43:03;;;;;;;5.93;2.60;;;15.70;99.90;;;;;;5071712;28;20190;-45
2023/05/17 09:45:31;;;;;;;8.23;2.67;;;15.70;99.90;;;;;;5053593;28;20638;-45
2023/05/17 09:47:57;;;;;;;9.60;2.95;;;15.90;99.90;;;;;;5071602;28;20169;-45
2023/05/17 09:50:23;;;;;;;7.70;2.47;;;;;;;;;;5071936;28;20209;-45
2023/05/17 09:52:49;;;;;;;7.63;2.70;;;16.30;97.60;;;;;;5071399;28;20645;-45
2023/05/17 09:55:16;;;;;;;11.85;3.03;;;16.40;96.80;;;;;;5071386;28;20748;-46
2023/05/17 09:57:41;;;;;;;7.82;2.88;;;16.70;97.10;;;;;;5071290;28;20613;-45
2023/05/17 10:00:11;;;;;;;10.80;2.78;;;16.80;97.00;;;;;;5071313;28;20205;-45
2023/05/17 10:02:39;;;;;;;6.15;2.30;;;16.20;95.00;;;;;;5071538;28;20551;-46
2023/05/17 10:05:11;;;;;;;6.53;2.10;;;16.20;96.60;;;;;;5071314;28;20169;-46
2023/05/17 10:07:37;;;;;;;6.47;2.33;;;16.50;97.30;;;;;;5071463;28;20207;-45
2023/05/17 10:10:05;;;;;;;7.55;2.63;;;16.70;97.60;;;;;;5071068;28;20251;-45
2023/05/17 10:12:33;;;;;;;10.25;2.33;;;16.20;99.30;;;;;;5071106;28;20627;-49
2023/05/17 10:15:00;;;;;;;8.88;2.60;;;15.80;97.00;;;;;;5071485;28;20531;-52
2023/05/17 10:17:29;;;;;;;6.43;2.17;;;16.30;99.00;;;;;;5071420;28;20227;-46
2023/05/17 10:19:56;;;;;;;7.45;2.63;;;;;;;;;;5071238;28;20220;-46
2023/05/17 10:22:22;;;;;;;9.32;3.05;;;16.10;99.90;;;;;;5071759;28;20181;-51
2023/05/17 10:24:50;;;;;;;10.52;2.95;;;15.80;99.90;;;;;;5071373;28;20207;-46
2023/05/17 10:27:16;;;;;;;11.73;2.97;;;15.80;99.90;;;;;;5071413;28;20174;-52
2023/05/17 10:29:43;;;;;;;10.90;2.25;;;16.00;99.90;;;;;;5071111;28;20540;-50
2023/05/17 10:32:12;;;;;;;5.80;1.90;;;15.80;99.10;;;;;;5071037;28;20744;-46
2023/05/17 10:34:38;;;;;;;8.63;2.42;;;16.10;99.60;;;;;;5070950;28;20215;-49
2023/05/17 10:37:05;;;;;;;7.45;2.47;;;16.50;99.20;;;;;;5070932;28;20168;-51
2023/05/17 10:39:33;;;;;;;9.48;2.50;;;16.60;96.50;;;;;;5072886;28;20197;-50
2023/05/17 10:42:02;;;;;;;7.65;2.20;;;16.60;96.10;;;;;;5074989;28;20261;-51
2023/05/17 10:44:31;;;;;;;4.97;2.05;;;16.80;95.30;;;;;;5074873;28;20254;-49
2023/05/17 10:46:58;;;;;;;6.20;2.10;;;16.70;94.60;;;;;;5074535;28;20173;-48
2023/05/17 10:49:30;;;;;;;10.20;3.63;;;16.70;93.10;;;;;;5074920;28;20204;-51
2023/05/17 10:52:10;;;;;;;7.75;1.90;;;;;;;;;;5074725;28;20204;-49
2023/05/17 10:54:41;;;;;;;10.57;3.20;;;17.00;93.40;;;;;;5074401;28;20166;-50
2023/05/17 10:57:07;;;;;;;10.90;2.70;;;16.80;93.50;;;;;;5074618;28;20188;-51
2023/05/17 10:59:34;;;;;;;8.93;2.63;;;16.90;94.20;;;;;;5074273;28;20622;-48
2023/05/17 11:02:07;;;;;;;7.43;2.20;;;16.90;93.50;;;;;;5074391;28;20178;-48
2023/05/17 11:04:34;;;;;;;8.85;2.58;;;17.00;94.10;;;;;;5074224;28;20631;-51
2023/05/17 11:07:19;;;;;;;9.82;2.55;;;17.40;93.30;;;;;;5074036;28;20229;-50
2023/05/17 11:09:54;;;;;;;7.95;2.38;;;17.20;92.20;;;;;;5074339;28;20326;-51
2023/05/17 11:12:31;;;;;;;5.65;2.10;;;17.30;92.70;;;;;;5074637;28;20220;-50
2023/05/17 11:14:57;;;;;;;5.85;2.28;;;17.00;93.20;;;;;;5074327;28;20174;-52
2023/05/17 11:17:52;;;;;;;6.13;2.13;;;16.50;92.80;;;;;;5073065;28;20531;-47
2023/05/17 11:20:26;;;;;;;8.02;2.20;;;17.20;94.80;;;;;;5074237;28;20189;-46
2023/05/17 11:23:01;;;;;;;6.82;2.08;;;17.30;92.30;;;;;;5074290;28;20165;-46
2023/05/17 11:25:29;;;;;;;6.63;1.88;;;17.10;92.60;;;;;;5074000;28;20165;-46
2023/05/17 11:27:57;;;;;;;7.95;2.40;;;17.40;91.40;;;;;;5074269;28;20162;-46
2023/05/17 11:30:28;;;;;;;8.05;2.70;;;17.50;91.40;;;;;;5074083;28;20204;-45
2023/05/17 11:32:59;;;;;;;4.78;2.13;;;17.60;91.80;;;;;;5074111;28;20216;-45
2023/05/17 11:35:31;;;;;;;11.00;2.80;;;17.20;91.80;;;;;;5074019;28;20716;-45
2023/05/17 11:38:15;;;;;;;3.42;1.67;;;16.70;92.10;;;;;;5073580;28;20193;-45
2023/05/17 11:40:42;;;;;;;5.80;2.42;;;17.20;93.30;;;;;;5073622;28;20166;-45
2023/05/17 11:43:17;;;;;;;7.03;2.38;;;17.60;92.00;;;;;;5073540;28;20560;-45
2023/05/17 11:46:02;;;;;;;6.10;2.20;;;17.90;92.40;;;;;;5073722;28;20174;-46
2023/05/17 11:48:29;;;;;;;6.88;2.50;;;18.10;91.70;;;;;;5073645;28;20518;-45
2023/05/17 11:50:55;;;;;;;7.90;2.40;;;18.30;91.90;;;;;;5073245;28;20724;-46
2023/05/17 11:53:23;;;;;;;7.78;1.92;;;18.30;90.50;;;;;;5073589;28;20170;-45
2023/05/17 11:55:50;;;;;;;3.75;1.98;;;18.10;91.00;;;;;;5073243;28;20640;-48
2023/05/17 11:58:23;;;;;;;6.53;2.53;;;17.90;92.50;;;;;;5073148;28;20158;-45
2023/05/17 12:00:53;;;;;;;7.18;2.30;;;18.20;88.90;;;;;;5073193;28;20166;-45
2023/05/17 12:03:20;;;;;;;9.13;2.28;;;18.10;87.20;;;;;;5073208;28;20169;-47
2023/05/17 12:05:47;;;;;;;7.13;2.13;;;18.10;87.80;;;;;;5073115;28;20583;-45
2023/05/17 12:08:18;;;;;;;7.22;2.22;;;18.10;90.80;;;;;;5073132;28;20177;-45
2023/05/17 12:10:49;;;;;;;7.15;2.50;;;18.10;86.80;;;;;;5072799;28;20197;-52
2023/05/17 12:13:15;;;;;;;8.90;1.88;;;18.20;87.10;;;;;;5073268;28;20197;-47
2023/05/17 12:15:44;;;;;;;7.68;2.40;;;18.50;89.90;;;;;;5073220;28;20631;-49
2023/05/17 12:18:10;;;;;;;7.28;2.40;;;18.60;87.60;;;;;;5072819;28;20646;-46
2023/05/17 12:20:37;;;;;;;6.45;2.38;;;17.80;86.70;;;;;;5072788;28;20196;-47
2023/05/17 12:23:03;;;;;;;7.53;2.40;;;18.20;89.10;;;;;;5072633;28;20643;-47
2023/05/17 12:25:29;;;;;;;7.07;2.33;;;18.40;89.80;;;;;;5072617;28;20170;-46
2023/05/17 12:28:17;;;;;;;8.00;2.33;;;18.40;88.70;;;;;;5072694;28;20170;-45
2023/05/17 12:30:43;;;;;;;6.13;2.55;;;18.00;88.50;;;;;;5072803;28;20216;-51
2023/05/17 12:33:09;;;;;;;4.35;1.92;;;17.80;85.00;;;;;;5072568;28;20627;-47
2023/05/17 12:35:35;;;;;;;5.32;1.90;;;18.10;84.80;;;;;;5072766;28;20204;-46
2023/05/17 12:38:01;;;;;;;10.07;2.20;;;18.20;85.60;;;;;;5072499;28;20158;-50
2023/05/17 12:40:27;;;;;;;5.90;1.95;;;18.40;85.30;;;;;;5072449;28;20161;-46
2023/05/17 12:43:02;;;;;;;4.25;2.00;;;17.70;87.20;;;;;;5072827;28;20162;-46
2023/05/17 12:45:27;;;;;;;5.68;2.03;;;17.80;85.10;;;;;;5072253;28;20182;-47
2023/05/17 12:47:53;;;;;;;6.28;2.25;;;17.90;86.60;;;;;;5072681;28;20176;-46
2023/05/17 12:50:29;;;;;;;6.40;2.20;;;17.90;88.90;;;;;;5072129;28;20209;-49
2023/05/17 12:52:55;;;;;;;6.00;1.92;;;;;;;;;;5072230;28;20154;-46
2023/05/17 12:55:20;;;;;;;8.02;2.38;;;18.30;86.10;;;;;;5072560;28;20535;-47
2023/05/17 12:57:53;;;;;;;7.57;2.20;;;18.30;86.20;;;;;;5072109;28;20224;-47
2023/05/17 13:00:20;;;;;;;8.95;2.25;;;18.40;88.40;;;;;;5072065;28;20165;-46
2023/05/17 13:02:46;;;;;;;6.35;2.13;;;18.30;87.60;;;;;;5071531;28;20504;-48
2023/05/17 13:05:20;;;;;;;5.22;1.88;;;18.30;89.10;;;;;;5071840;28;20261;-46